sensor_id;sensor_type;location;lat;lon;timestamp;P1;P2;P0
58740;PMS7003;44512;53.046;18.604;2022-07-23T00:07:38;24;23;16
58740;PMS7003;44512;53.046;18.604;2022-07-23T00:18:06;21;20;15
58740;PMS7003;44512;53.046;18.604;2022-07-23T00:28:35;26;24;16
58740;PMS7003;44512;53.046;18.604;2022-07-23T00:39:03;26;23;17
58740;PMS7003;44512;53.046;18.604;2022-07-23T00:49:31;26;25;17
58740;PMS7003;44512;53.046;18.604;2022-07-23T01:00:00;20;18;13
58740;PMS7003;44512;53.046;18.604;2022-07-23T01:10:28;24;23;18
58740;PMS7003;44512;53.046;18.604;2022-07-23T01:20:56;25;24;17
58740;PMS7003;44512;53.046;18.604;2022-07-23T01:31:25;27;24;17
58740;PMS7003;44512;53.046;18.604;2022-07-23T01:41:53;31;26;18
58740;PMS7003;44512;53.046;18.604;2022-07-23T01:52:22;29;27;20
58740;PMS7003;44512;53.046;18.604;2022-07-23T02:02:50;31;26;19
58740;PMS7003;44512;53.046;18.604;2022-07-23T02:13:18;35;29;21
58740;PMS7003;44512;53.046;18.604;2022-07-23T02:23:47;33;28;20
58740;PMS7003;44512;53.046;18.604;2022-07-23T02:34:15;31;28;20
58740;PMS7003;44512;53.046;18.604;2022-07-23T02:44:43;31;25;19
58740;PMS7003;44512;53.046;18.604;2022-07-23T02:55:12;30;27;19
58740;PMS7003;44512;53.046;18.604;2022-07-23T03:05:40;32;29;20
58740;PMS7003;44512;53.046;18.604;2022-07-23T03:16:08;34;29;19
58740;PMS7003;44512;53.046;18.604;2022-07-23T03:26:37;34;29;21
58740;PMS7003;44512;53.046;18.604;2022-07-23T03:37:05;31;26;18
58740;PMS7003;44512;53.046;18.604;2022-07-23T03:47:34;35;28;20
58740;PMS7003;44512;53.046;18.604;2022-07-23T03:58:02;33;28;20
58740;PMS7003;44512;53.046;18.604;2022-07-23T04:08:31;40;30;20
58740;PMS7003;44512;53.046;18.604;2022-07-23T04:18:59;32;30;21
58740;PMS7003;44512;53.046;18.604;2022-07-23T04:29:27;34;26;18
58740;PMS7003;44512;53.046;18.604;2022-07-23T04:39:55;26;26;19
58740;PMS7003;44512;53.046;18.604;2022-07-23T04:50:24;26;21;15
58740;PMS7003;44512;53.046;18.604;2022-07-23T05:00:52;26;23;16
58740;PMS7003;44512;53.046;18.604;2022-07-23T05:11:21;27;23;18
58740;PMS7003;44512;53.046;18.604;2022-07-23T05:21:49;29;26;19
58740;PMS7003;44512;53.046;18.604;2022-07-23T05:32:17;25;23;16
58740;PMS7003;44512;53.046;18.604;2022-07-23T05:42:46;31;26;18
58740;PMS7003;44512;53.046;18.604;2022-07-23T05:53:14;33;28;21
58740;PMS7003;44512;53.046;18.604;2022-07-23T06:03:43;27;25;19
58740;PMS7003;44512;53.046;18.604;2022-07-23T06:14:11;18;16;12
58740;PMS7003;44512;53.046;18.604;2022-07-23T06:24:39;18;17;13
58740;PMS7003;44512;53.046;18.604;2022-07-23T06:35:08;16;15;12
58740;PMS7003;44512;53.046;18.604;2022-07-23T06:45:36;19;16;13
58740;PMS7003;44512;53.046;18.604;2022-07-23T06:56:04;19;17;13
58740;PMS7003;44512;53.046;18.604;2022-07-23T07:06:33;18;16;13
58740;PMS7003;44512;53.046;18.604;2022-07-23T07:17:01;16;15;12
58740;PMS7003;44512;53.046;18.604;2022-07-23T07:27:29;12;11;9
58740;PMS7003;44512;53.046;18.604;2022-07-23T07:37:58;13;12;10
58740;PMS7003;44512;53.046;18.604;2022-07-23T07:48:26;14;12;9
58740;PMS7003;44512;53.046;18.604;2022-07-23T07:58:54;13;13;11
58740;PMS7003;44512;53.046;18.604;2022-07-23T08:09:23;12;11;9
58740;PMS7003;44512;53.046;18.604;2022-07-23T08:19:51;10;9;8
58740;PMS7003;44512;53.046;18.604;2022-07-23T08:30:20;12;10;8
58740;PMS7003;44512;53.046;18.604;2022-07-23T08:40:50;10;8;7
58740;PMS7003;44512;53.046;18.604;2022-07-23T08:51:16;11;10;8
58740;PMS7003;44512;53.046;18.604;2022-07-23T09:01:45;11;11;8
58740;PMS7003;44512;53.046;18.604;2022-07-23T09:12:13;13;12;10
58740;PMS7003;44512;53.046;18.604;2022-07-23T09:22:45;12;11;8
58740;PMS7003;44512;53.046;18.604;2022-07-23T09:33:10;12;11;8
58740;PMS7003;44512;53.046;18.604;2022-07-23T09:43:38;9;9;8
58740;PMS7003;44512;53.046;18.604;2022-07-23T09:54:06;13;10;8
58740;PMS7003;44512;53.046;18.604;2022-07-23T10:04:35;10;10;8
58740;PMS7003;44512;53.046;18.604;2022-07-23T10:15:04;10;9;7
58740;PMS7003;44512;53.046;18.604;2022-07-23T10:36:02;11;11;8
58740;PMS7003;44512;53.046;18.604;2022-07-23T10:51:29;16;14;10
58740;PMS7003;44512;53.046;18.604;2022-07-23T11:12:31;16;13;11
58740;PMS7003;44512;53.046;18.604;2022-07-23T11:22:54;15;14;10
58740;PMS7003;44512;53.046;18.604;2022-07-23T11:33:22;15;15;11
58740;PMS7003;44512;53.046;18.604;2022-07-23T11:43:54;15;14;12
58740;PMS7003;44512;53.046;18.604;2022-07-23T11:54:19;17;14;11
58740;PMS7003;44512;53.046;18.604;2022-07-23T12:04:48;12;12;10
58740;PMS7003;44512;53.046;18.604;2022-07-23T12:15:16;13;11;9
58740;PMS7003;44512;53.046;18.604;2022-07-23T12:25:45;14;13;10
58740;PMS7003;44512;53.046;18.604;2022-07-23T12:36:12;14;13;11
58740;PMS7003;44512;53.046;18.604;2022-07-23T12:46:41;14;13;10
58740;PMS7003;44512;53.046;18.604;2022-07-23T12:57:09;29;25;19
58740;PMS7003;44512;53.046;18.604;2022-07-23T13:07:37;22;19;14
58740;PMS7003;44512;53.046;18.604;2022-07-23T13:18:06;14;12;10
58740;PMS7003;44512;53.046;18.604;2022-07-23T13:28:34;16;15;12
58740;PMS7003;44512;53.046;18.604;2022-07-23T13:39:03;21;16;12
58740;PMS7003;44512;53.046;18.604;2022-07-23T13:49:31;16;15;11
58740;PMS7003;44512;53.046;18.604;2022-07-23T13:59:59;13;12;10
58740;PMS7003;44512;53.046;18.604;2022-07-23T14:10:28;14;13;11
58740;PMS7003;44512;53.046;18.604;2022-07-23T14:20:56;14;12;9
58740;PMS7003;44512;53.046;18.604;2022-07-23T14:31:24;13;12;10
58740;PMS7003;44512;53.046;18.604;2022-07-23T14:41:52;13;12;10
58740;PMS7003;44512;53.046;18.604;2022-07-23T14:52:21;14;12;9
58740;PMS7003;44512;53.046;18.604;2022-07-23T15:02:50;14;13;10
58740;PMS7003;44512;53.046;18.604;2022-07-23T15:13:18;13;13;9
58740;PMS7003;44512;53.046;18.604;2022-07-23T15:23:46;13;13;10
58740;PMS7003;44512;53.046;18.604;2022-07-23T15:34:14;13;12;10
58740;PMS7003;44512;53.046;18.604;2022-07-23T15:44:43;11;11;9
58740;PMS7003;44512;53.046;18.604;2022-07-23T15:55:11;14;13;10
58740;PMS7003;44512;53.046;18.604;2022-07-23T16:05:42;14;13;11
58740;PMS7003;44512;53.046;18.604;2022-07-23T16:16:08;14;13;11
58740;PMS7003;44512;53.046;18.604;2022-07-23T16:26:36;12;12;10
58740;PMS7003;44512;53.046;18.604;2022-07-23T16:37:07;14;13;11
58740;PMS7003;44512;53.046;18.604;2022-07-23T16:47:33;13;12;10
58740;PMS7003;44512;53.046;18.604;2022-07-23T16:58:02;13;12;9
58740;PMS7003;44512;53.046;18.604;2022-07-23T17:08:29;13;13;10
58740;PMS7003;44512;53.046;18.604;2022-07-23T17:18:58;13;11;8
58740;PMS7003;44512;53.046;18.604;2022-07-23T17:29:26;14;13;10
58740;PMS7003;44512;53.046;18.604;2022-07-23T17:39:54;13;11;9
58740;PMS7003;44512;53.046;18.604;2022-07-23T17:50:23;17;13;11
58740;PMS7003;44512;53.046;18.604;2022-07-23T18:00:51;15;13;11
58740;PMS7003;44512;53.046;18.604;2022-07-23T18:11:20;15;14;10
58740;PMS7003;44512;53.046;18.604;2022-07-23T18:21:48;13;13;11
58740;PMS7003;44512;53.046;18.604;2022-07-23T18:32:16;12;12;10
58740;PMS7003;44512;53.046;18.604;2022-07-23T18:42:45;12;12;10
58740;PMS7003;44512;53.046;18.604;2022-07-23T18:53:13;13;12;10
58740;PMS7003;44512;53.046;18.604;2022-07-23T19:03:41;11;11;9
58740;PMS7003;44512;53.046;18.604;2022-07-23T19:14:10;13;13;10
58740;PMS7003;44512;53.046;18.604;2022-07-23T19:24:38;17;13;9
58740;PMS7003;44512;53.046;18.604;2022-07-23T19:35:07;15;14;11
58740;PMS7003;44512;53.046;18.604;2022-07-23T19:45:35;13;12;9
58740;PMS7003;44512;53.046;18.604;2022-07-23T19:56:03;17;15;11
58740;PMS7003;44512;53.046;18.604;2022-07-23T20:06:32;17;16;12
58740;PMS7003;44512;53.046;18.604;2022-07-23T20:17:00;19;17;14
58740;PMS7003;44512;53.046;18.604;2022-07-23T20:27:28;16;14;10
58740;PMS7003;44512;53.046;18.604;2022-07-23T20:37:56;12;10;8
58740;PMS7003;44512;53.046;18.604;2022-07-23T20:48:25;9;8;7
58740;PMS7003;44512;53.046;18.604;2022-07-23T20:58:53;9;7;5
58740;PMS7003;44512;53.046;18.604;2022-07-23T21:09:21;6;5;4
58740;PMS7003;44512;53.046;18.604;2022-07-23T21:19:50;6;4;4
58740;PMS7003;44512;53.046;18.604;2022-07-23T21:30:18;6;5;4
58740;PMS7003;44512;53.046;18.604;2022-07-23T21:40:46;7;5;5
58740;PMS7003;44512;53.046;18.604;2022-07-23T21:51:15;4;4;3
58740;PMS7003;44512;53.046;18.604;2022-07-23T22:01:43;3;3;2
58740;PMS7003;44512;53.046;18.604;2022-07-23T22:12:11;2;2;2
58740;PMS7003;44512;53.046;18.604;2022-07-23T22:22:44;2;2;1
58740;PMS7003;44512;53.046;18.604;2022-07-23T22:33:08;1;1;1
58740;PMS7003;44512;53.046;18.604;2022-07-23T22:43:36;1;1;1
58740;PMS7003;44512;53.046;18.604;2022-07-23T22:54:05;2;2;1
58740;PMS7003;44512;53.046;18.604;2022-07-23T23:04:33;3;2;1
58740;PMS7003;44512;53.046;18.604;2022-07-23T23:15:02;1;1;1
58740;PMS7003;44512;53.046;18.604;2022-07-23T23:25:30;3;1;1
58740;PMS7003;44512;53.046;18.604;2022-07-23T23:35:58;1;1;1
58740;PMS7003;44512;53.046;18.604;2022-07-23T23:46:27;4;2;2
58740;PMS7003;44512;53.046;18.604;2022-07-23T23:56:55;3;3;2
